Espinoza, Colorado
Current Conditions -  °F | °C
As of 1:52 AM on Wednesday 22 Oct 2014 (Local Time) from KALS Reporting Station
Few Clouds Few Clouds  
Wind Chill: 40°   Ceiling: Unl
Heat Index: 40°   Visibility: 10mi
Dew Point: 35°   Wind: 3mph
Humidity: 83%   Direction: 70°ENE
Pressure: 30.16"   Gusts: NA
Location:  37.1816°N, 106.262°W
Report Text: KALS 220752Z AUTO 07003KT 10SM FEW090 04/02 A3016 RMK AO2 SLP156 T00440017
Loading
Personal Weather Stations






























Interactive Weather Map
Tropical Storm Tracking
New forecast layout! Learn more

10-Day Weather Forecast

Advertisements
Track Severe Weather on mobile